createdAt,value
2022-08-20T00:00:32.876Z,17.00
2022-08-20T00:03:01.877Z,17.00
2022-08-20T00:05:33.191Z,17.00
2022-08-20T00:08:00.561Z,16.90
2022-08-20T00:10:28.437Z,16.90
2022-08-20T00:12:55.688Z,16.90
2022-08-20T00:15:24.698Z,16.80
2022-08-20T00:17:52.069Z,16.80
2022-08-20T00:20:20.147Z,16.70
2022-08-20T00:22:47.559Z,16.70
2022-08-20T00:25:14.755Z,16.60
2022-08-20T00:27:41.833Z,16.60
2022-08-20T00:30:10.259Z,16.60
2022-08-20T00:32:48.247Z,16.60
2022-08-20T00:35:20.370Z,16.50
2022-08-20T00:37:47.331Z,16.50
2022-08-20T00:40:23.284Z,16.50
2022-08-20T00:42:57.513Z,16.50
2022-08-20T00:45:30.065Z,16.40
2022-08-20T00:47:57.299Z,16.40
2022-08-20T00:50:28.697Z,16.40
2022-08-20T00:52:55.923Z,16.30
2022-08-20T00:55:26.448Z,16.30
2022-08-20T00:58:01.019Z,16.20
2022-08-20T01:00:39.363Z,16.20
2022-08-20T01:03:10.004Z,16.10
2022-08-20T01:05:41.683Z,16.10
2022-08-20T01:08:09.442Z,16.10
2022-08-20T01:10:38.821Z,16.10
2022-08-20T01:13:12.638Z,16.10
2022-08-20T01:15:43.310Z,16.00
2022-08-20T01:18:16.833Z,16.00
2022-08-20T01:20:47.268Z,15.90
2022-08-20T01:23:36.130Z,15.90
2022-08-20T01:26:09.194Z,15.90
2022-08-20T01:29:01.852Z,15.90
2022-08-20T01:31:30.583Z,15.90
2022-08-20T01:33:58.554Z,15.80
2022-08-20T01:36:27.742Z,15.80
2022-08-20T01:38:54.933Z,15.70
2022-08-20T01:41:45.971Z,15.60
2022-08-20T01:44:16.688Z,15.60
2022-08-20T01:46:46.171Z,15.60
2022-08-20T01:49:16.424Z,15.60
2022-08-20T01:51:50.870Z,15.50
2022-08-20T01:54:17.827Z,15.50
2022-08-20T01:57:14.562Z,15.40
2022-08-20T01:59:42.002Z,15.40
2022-08-20T02:02:09.327Z,15.30
2022-08-20T02:04:36.523Z,15.20
2022-08-20T02:07:04.510Z,15.10
2022-08-20T02:09:36.363Z,15.10
2022-08-20T02:12:04.076Z,15.00
2022-08-20T02:14:31.163Z,14.90
2022-08-20T02:17:01.209Z,14.90
2022-08-20T02:19:33.921Z,14.80
2022-08-20T02:22:04.415Z,14.80
2022-08-20T02:24:31.415Z,14.70
2022-08-20T02:26:58.376Z,14.60
2022-08-20T02:29:26.298Z,14.50
2022-08-20T02:32:26.265Z,14.50
2022-08-20T02:34:41.915Z,14.40
2022-08-20T02:37:09.118Z,14.40
2022-08-20T02:39:36.201Z,14.30
2022-08-20T02:42:04.025Z,14.30
2022-08-20T02:44:31.516Z,14.20
2022-08-20T02:46:58.660Z,14.20
2022-08-20T02:49:25.633Z,14.20
2022-08-20T02:51:52.804Z,14.20
2022-08-20T02:54:19.711Z,14.10
2022-08-20T02:56:47.548Z,14.00
2022-08-20T02:59:19.009Z,14.00
2022-08-20T03:02:00.222Z,13.90
2022-08-20T03:04:29.485Z,13.90
2022-08-20T03:06:56.822Z,13.90
2022-08-20T03:09:24.047Z,13.80
2022-08-20T03:11:51.400Z,13.80
2022-08-20T03:14:18.364Z,13.80
2022-08-20T03:16:45.302Z,13.70
2022-08-20T03:19:13.464Z,13.70
2022-08-20T03:21:40.530Z,13.60
2022-08-20T03:24:07.594Z,13.60
2022-08-20T03:26:34.558Z,13.60
2022-08-20T03:32:07.665Z,13.60
2022-08-20T03:34:35.130Z,13.60
2022-08-20T03:37:02.043Z,13.60
2022-08-20T03:39:28.982Z,13.60
2022-08-20T03:41:56.359Z,13.60
2022-08-20T03:44:23.381Z,13.60
2022-08-20T03:46:50.351Z,13.50
2022-08-20T03:49:17.370Z,13.50
2022-08-20T03:51:57.363Z,13.50
2022-08-20T03:54:29.127Z,13.50
2022-08-20T03:56:59.517Z,13.50
2022-08-20T03:59:26.800Z,13.50
2022-08-20T04:01:54.755Z,13.40
2022-08-20T04:04:22.280Z,13.40
2022-08-20T04:06:49.325Z,13.30
2022-08-20T04:09:16.258Z,13.30
2022-08-20T04:11:43.207Z,13.20
2022-08-20T04:14:11.370Z,13.20
2022-08-20T04:16:41.914Z,13.30
2022-08-20T04:19:08.938Z,13.20
2022-08-20T04:21:36.128Z,13.20
2022-08-20T04:24:04.517Z,13.10
2022-08-20T04:26:31.734Z,13.10
2022-08-20T04:28:58.752Z,13.10
2022-08-20T04:31:31.355Z,13.10
2022-08-20T04:33:58.407Z,13.10
2022-08-20T04:36:25.493Z,13.00
2022-08-20T04:38:52.446Z,13.00
2022-08-20T04:41:22.424Z,13.00
2022-08-20T04:43:50.439Z,13.00
2022-08-20T04:46:17.427Z,13.00
2022-08-20T04:48:48.880Z,12.90
2022-08-20T04:51:18.063Z,12.90
2022-08-20T04:53:52.156Z,12.90
2022-08-20T04:56:23.437Z,12.90
2022-08-20T04:58:51.371Z,12.80
2022-08-20T05:01:18.561Z,12.80
2022-08-20T05:03:47.975Z,12.80
2022-08-20T05:06:16.314Z,12.80
2022-08-20T05:08:43.737Z,12.80
2022-08-20T05:11:32.813Z,12.80
2022-08-20T05:13:58.010Z,12.80
2022-08-20T05:16:25.046Z,12.80
2022-08-20T05:18:52.839Z,12.80
2022-08-20T05:21:20.829Z,12.70
2022-08-20T05:23:47.824Z,12.70
2022-08-20T05:26:16.129Z,12.80
2022-08-20T05:28:58.227Z,12.80
2022-08-20T05:31:31.344Z,12.90
2022-08-20T05:34:09.818Z,12.90
2022-08-20T05:36:42.055Z,12.90
2022-08-20T05:39:09.607Z,12.90
2022-08-20T05:41:37.867Z,12.90
2022-08-20T05:44:05.027Z,12.90
2022-08-20T05:46:32.288Z,12.90
2022-08-20T05:49:01.777Z,12.90
2022-08-20T05:51:29.543Z,13.00
2022-08-20T05:53:59.320Z,13.00
2022-08-20T05:56:30.850Z,13.10
2022-08-20T05:59:00.575Z,13.10
2022-08-20T06:01:27.578Z,13.20
2022-08-20T06:04:13.090Z,13.20
2022-08-20T06:06:46.112Z,13.30
2022-08-20T06:09:15.279Z,13.30
2022-08-20T06:11:42.279Z,13.40
2022-08-20T06:14:09.255Z,13.40
2022-08-20T06:16:37.419Z,13.40
2022-08-20T06:19:05.517Z,13.50
2022-08-20T06:21:32.426Z,13.70
2022-08-20T06:24:01.731Z,13.80
2022-08-20T06:26:30.616Z,13.90
2022-08-20T06:29:02.008Z,14.00
2022-08-20T06:31:29.233Z,14.20
2022-08-20T06:33:56.390Z,14.40
2022-08-20T06:36:23.495Z,14.60
2022-08-20T06:38:50.487Z,14.80
2022-08-20T06:41:17.451Z,15.00
2022-08-20T06:43:44.417Z,15.10
2022-08-20T06:46:11.351Z,15.30
2022-08-20T06:48:38.329Z,15.50
2022-08-20T06:51:06.893Z,15.70
2022-08-20T06:53:33.986Z,15.90
2022-08-20T06:56:05.076Z,16.10
2022-08-20T06:58:37.342Z,16.30
2022-08-20T07:01:10.242Z,16.50
2022-08-20T07:03:54.240Z,16.60
2022-08-20T07:06:25.085Z,16.70
2022-08-20T07:08:52.201Z,16.90
2022-08-20T07:11:26.516Z,17.00
2022-08-20T07:13:56.870Z,17.30
2022-08-20T07:16:24.114Z,18.10
2022-08-20T07:18:51.073Z,18.90
2022-08-20T07:21:18.005Z,19.70
2022-08-20T07:23:45.200Z,20.30
2022-08-20T07:26:13.260Z,20.90
2022-08-20T07:28:40.224Z,21.60
2022-08-20T07:31:25.993Z,22.20
2022-08-20T07:33:54.026Z,22.60
2022-08-20T07:36:21.006Z,23.00
2022-08-20T07:38:52.448Z,23.50
2022-08-20T07:41:19.735Z,24.00
2022-08-20T07:43:46.884Z,24.40
2022-08-20T07:46:16.626Z,24.80
2022-08-20T07:48:46.945Z,25.10
2022-08-20T07:51:15.099Z,25.50
2022-08-20T07:53:42.133Z,25.50
2022-08-20T07:56:11.461Z,25.70
2022-08-20T07:58:49.904Z,25.80
2022-08-20T08:01:20.352Z,26.10
2022-08-20T08:03:49.647Z,26.20
2022-08-20T08:06:28.547Z,26.40
2022-08-20T08:09:07.963Z,26.40
2022-08-20T08:11:37.829Z,26.50
2022-08-20T08:14:06.943Z,26.50
2022-08-20T08:16:35.175Z,26.80
2022-08-20T08:19:02.303Z,27.10
2022-08-20T08:21:30.231Z,27.30
2022-08-20T08:23:58.355Z,27.50
2022-08-20T08:26:26.386Z,27.60
2022-08-20T08:28:53.367Z,27.70
2022-08-20T08:31:20.408Z,27.80
2022-08-20T08:33:47.718Z,28.00
2022-08-20T08:36:15.617Z,27.90
2022-08-20T08:38:44.250Z,27.80
2022-08-20T08:41:20.053Z,27.80
2022-08-20T08:43:48.232Z,27.80
2022-08-20T08:46:18.137Z,27.80
2022-08-20T08:48:46.449Z,28.10
2022-08-20T08:51:16.343Z,28.50
2022-08-20T08:53:54.790Z,28.50
2022-08-20T08:56:28.195Z,27.50
2022-08-20T08:59:00.656Z,26.80
2022-08-20T09:01:54.085Z,27.20
2022-08-20T09:04:15.491Z,26.80
2022-08-20T09:06:43.577Z,26.90
2022-08-20T09:09:37.803Z,27.40
2022-08-20T09:12:14.248Z,28.10
2022-08-20T09:14:41.464Z,28.10
2022-08-20T09:17:08.458Z,28.30
2022-08-20T09:19:35.581Z,28.20
2022-08-20T09:22:10.021Z,28.60
2022-08-20T09:24:37.090Z,28.60
2022-08-20T09:27:04.089Z,28.30
2022-08-20T09:29:32.742Z,28.00
2022-08-20T09:32:12.742Z,27.40
2022-08-20T09:34:41.630Z,27.10
2022-08-20T09:37:08.682Z,26.40
2022-08-20T09:39:35.993Z,25.90
2022-08-20T09:42:17.210Z,25.60
2022-08-20T09:44:44.310Z,25.60
2022-08-20T09:47:11.410Z,25.80
2022-08-20T09:49:38.468Z,25.60
2022-08-20T09:52:07.182Z,25.20
2022-08-20T09:54:34.604Z,24.90
2022-08-20T09:57:04.155Z,24.80
2022-08-20T09:59:31.191Z,25.10
2022-08-20T10:01:58.253Z,25.00
2022-08-20T10:04:25.250Z,24.90
2022-08-20T10:06:52.655Z,24.70
2022-08-20T10:09:19.594Z,24.70
2022-08-20T10:11:46.531Z,24.70
2022-08-20T10:14:13.538Z,24.60
2022-08-20T10:16:40.487Z,24.40
2022-08-20T10:19:08.575Z,24.30
2022-08-20T10:21:38.812Z,24.30
2022-08-20T10:24:06.492Z,24.20
2022-08-20T10:26:33.439Z,24.20
2022-08-20T10:29:00.474Z,24.20
2022-08-20T10:31:27.433Z,24.00
2022-08-20T10:33:54.466Z,23.90
2022-08-20T10:36:21.625Z,24.00
2022-08-20T10:38:49.233Z,24.10
2022-08-20T10:41:16.256Z,24.20
2022-08-20T10:43:43.291Z,24.10
2022-08-20T10:46:10.312Z,24.20
2022-08-20T10:48:37.467Z,24.10
2022-08-20T10:51:04.555Z,24.00
2022-08-20T10:53:31.587Z,23.90
2022-08-20T10:55:58.558Z,23.90
2022-08-20T10:58:25.803Z,23.90
2022-08-20T11:00:56.138Z,23.90
2022-08-20T11:03:23.068Z,23.80
2022-08-20T11:05:50.139Z,23.80
2022-08-20T11:08:34.474Z,23.90
2022-08-20T11:11:03.494Z,23.90
2022-08-20T11:13:30.480Z,23.80
2022-08-20T11:15:57.518Z,23.90
2022-08-20T11:18:24.439Z,23.90
2022-08-20T11:20:51.458Z,24.00
2022-08-20T11:23:18.409Z,24.10
2022-08-20T11:25:45.460Z,24.30
2022-08-20T11:28:13.198Z,24.50
2022-08-20T11:30:40.255Z,24.80
2022-08-20T11:33:07.335Z,25.00
2022-08-20T11:35:48.159Z,24.90
2022-08-20T11:38:17.062Z,24.90
2022-08-20T11:40:44.021Z,24.90
2022-08-20T11:43:16.269Z,24.90
2022-08-20T11:45:54.888Z,24.90
2022-08-20T11:48:21.997Z,25.00
2022-08-20T11:50:49.179Z,24.90
2022-08-20T11:53:16.135Z,24.90
2022-08-20T11:55:43.469Z,25.00
2022-08-20T11:58:10.557Z,24.90
2022-08-20T12:00:37.720Z,24.90
2022-08-20T12:03:09.204Z,25.00
2022-08-20T12:05:37.781Z,24.90
2022-08-20T12:08:04.879Z,25.00
2022-08-20T12:10:31.948Z,25.20
2022-08-20T12:12:59.097Z,25.20
2022-08-20T12:15:27.638Z,25.00
2022-08-20T12:17:55.106Z,24.70
2022-08-20T12:20:22.347Z,24.40
2022-08-20T12:22:49.397Z,24.20
2022-08-20T12:25:16.375Z,24.40
2022-08-20T12:27:43.330Z,24.60
2022-08-20T12:30:12.832Z,24.80
2022-08-20T12:32:39.934Z,24.90
2022-08-20T12:35:07.417Z,25.10
2022-08-20T12:37:34.497Z,25.20
2022-08-20T12:40:02.603Z,25.20
2022-08-20T12:42:30.675Z,25.50
2022-08-20T12:44:59.184Z,25.40
2022-08-20T12:47:31.221Z,25.70
2022-08-20T12:50:05.045Z,25.90
2022-08-20T12:52:32.462Z,26.00
2022-08-20T12:54:59.533Z,25.90
2022-08-20T12:57:33.812Z,25.80
2022-08-20T13:00:03.792Z,25.70
2022-08-20T13:02:31.996Z,25.60
2022-08-20T13:05:03.970Z,25.50
2022-08-20T13:07:32.482Z,25.40
2022-08-20T13:09:59.536Z,25.50
2022-08-20T13:12:26.610Z,25.30
2022-08-20T13:14:53.524Z,25.10
2022-08-20T13:17:20.591Z,25.00
2022-08-20T13:20:06.789Z,25.00
2022-08-20T13:22:33.765Z,25.10
2022-08-20T13:25:00.679Z,25.20
2022-08-20T13:27:27.895Z,25.20
2022-08-20T13:29:58.565Z,25.40
2022-08-20T13:32:26.001Z,25.30
2022-08-20T13:34:53.055Z,25.30
2022-08-20T13:37:25.594Z,25.30
2022-08-20T13:39:53.865Z,25.40
2022-08-20T13:42:21.043Z,25.50
2022-08-20T13:44:48.174Z,25.40
2022-08-20T13:47:20.580Z,25.30
2022-08-20T13:49:48.657Z,25.30
2022-08-20T13:52:16.977Z,25.40
2022-08-20T13:54:44.065Z,25.30
2022-08-20T13:57:13.408Z,25.50
2022-08-20T13:59:41.832Z,25.40
2022-08-20T14:02:09.386Z,25.30
2022-08-20T14:04:36.401Z,25.10
2022-08-20T14:07:19.633Z,25.30
2022-08-20T14:09:49.766Z,25.50
2022-08-20T14:12:16.801Z,25.60
2022-08-20T14:14:43.829Z,25.60
2022-08-20T14:17:27.857Z,25.70
2022-08-20T14:20:01.490Z,25.70
2022-08-20T14:22:29.205Z,25.90
2022-08-20T14:24:56.687Z,26.20
2022-08-20T14:27:29.100Z,26.30
2022-08-20T14:29:58.005Z,26.40
2022-08-20T14:32:25.080Z,26.10
2022-08-20T14:34:52.038Z,25.70
2022-08-20T14:37:27.823Z,25.70
2022-08-20T14:39:57.634Z,25.60
2022-08-20T14:42:26.595Z,25.50
2022-08-20T14:44:54.281Z,25.30
2022-08-20T14:47:23.549Z,25.40
2022-08-20T14:49:51.055Z,25.60
2022-08-20T14:52:18.636Z,25.40
2022-08-20T14:54:46.028Z,25.20
2022-08-20T14:57:14.436Z,25.10
2022-08-20T14:59:41.986Z,25.10
2022-08-20T15:02:10.466Z,25.20
2022-08-20T15:04:37.680Z,25.40
2022-08-20T15:07:10.826Z,25.40
2022-08-20T15:09:38.153Z,25.30
2022-08-20T15:12:05.491Z,25.10
2022-08-20T15:14:32.459Z,25.00
2022-08-20T15:17:00.567Z,25.10
2022-08-20T15:19:27.658Z,25.20
2022-08-20T15:21:54.702Z,25.20
2022-08-20T15:24:21.966Z,25.20
2022-08-20T15:26:48.933Z,25.20
2022-08-20T15:29:22.604Z,25.10
2022-08-20T15:31:51.097Z,25.10
2022-08-20T15:34:18.499Z,25.20
2022-08-20T15:36:46.011Z,25.30
2022-08-20T15:39:13.004Z,25.40
2022-08-20T15:41:40.001Z,25.30
2022-08-20T15:44:07.300Z,25.20
2022-08-20T15:46:38.993Z,25.10
2022-08-20T15:49:08.494Z,25.00
2022-08-20T15:51:40.839Z,25.00
2022-08-20T15:54:12.652Z,25.10
2022-08-20T15:56:51.728Z,25.20
2022-08-20T15:59:38.055Z,25.20
2022-08-20T16:02:25.874Z,25.20
2022-08-20T16:05:08.488Z,25.20
2022-08-20T16:07:46.907Z,25.20
2022-08-20T16:10:46.852Z,25.10
2022-08-20T16:13:32.414Z,24.90
2022-08-20T16:16:00.886Z,24.70
2022-08-20T16:18:32.895Z,24.60
2022-08-20T16:21:03.568Z,24.70
2022-08-20T16:23:32.735Z,24.60
2022-08-20T16:26:02.421Z,24.70
2022-08-20T16:28:38.844Z,24.50
2022-08-20T16:31:07.718Z,24.40
2022-08-20T16:33:37.473Z,24.30
2022-08-20T16:36:15.319Z,24.20
2022-08-20T16:38:48.773Z,24.30
2022-08-20T16:41:39.654Z,24.30
2022-08-20T16:44:09.800Z,24.20
2022-08-20T16:46:39.932Z,24.20
2022-08-20T16:49:13.507Z,24.20
2022-08-20T16:51:42.804Z,24.20
2022-08-20T16:54:10.076Z,24.20
2022-08-20T16:56:40.534Z,24.30
2022-08-20T16:59:26.999Z,24.30
2022-08-20T17:02:10.591Z,24.40
2022-08-20T17:04:59.571Z,24.50
2022-08-20T17:07:46.479Z,24.30
2022-08-20T17:10:21.230Z,24.20
2022-08-20T17:12:57.097Z,24.30
2022-08-20T17:15:27.091Z,24.30
2022-08-20T17:17:55.901Z,24.30
2022-08-20T17:20:24.862Z,24.30
2022-08-20T17:23:11.299Z,24.20
2022-08-20T17:25:38.581Z,24.20
2022-08-20T17:28:19.020Z,24.10
2022-08-20T17:30:46.352Z,24.00
2022-08-20T17:33:35.040Z,23.80
2022-08-20T17:36:08.750Z,23.80
2022-08-20T17:38:38.771Z,23.70
2022-08-20T17:41:15.238Z,23.60
2022-08-20T17:43:44.514Z,23.50
2022-08-20T17:46:13.935Z,23.50
2022-08-20T17:48:41.989Z,23.40
2022-08-20T17:51:17.005Z,23.30
2022-08-20T17:53:45.441Z,23.10
2022-08-20T17:56:27.712Z,23.00
2022-08-20T17:59:03.081Z,22.90
2022-08-20T18:01:30.658Z,22.90
2022-08-20T18:03:57.622Z,22.90
2022-08-20T18:06:46.526Z,22.80
2022-08-20T18:09:16.457Z,22.80
2022-08-20T18:12:00.163Z,22.70
2022-08-20T18:14:34.769Z,22.60
2022-08-20T18:17:33.690Z,22.60
2022-08-20T18:20:24.548Z,22.40
2022-08-20T18:23:05.743Z,22.40
2022-08-20T18:25:54.829Z,22.30
2022-08-20T18:28:26.334Z,22.20
2022-08-20T18:31:01.538Z,22.20
2022-08-20T18:33:37.918Z,22.00
2022-08-20T18:36:20.314Z,22.00
2022-08-20T18:39:05.930Z,22.00
2022-08-20T18:41:40.837Z,21.90
2022-08-20T18:44:15.159Z,21.80
2022-08-20T18:46:56.919Z,21.70
2022-08-20T18:49:31.512Z,21.60
2022-08-20T18:51:58.783Z,21.50
2022-08-20T18:54:30.528Z,21.50
2022-08-20T18:57:08.806Z,21.40
2022-08-20T18:59:40.733Z,21.40
2022-08-20T19:02:17.730Z,21.40
2022-08-20T19:04:46.383Z,21.30
2022-08-20T19:07:19.119Z,21.20
2022-08-20T19:09:54.689Z,21.20
2022-08-20T19:12:54.792Z,21.20
2022-08-20T19:15:21.861Z,21.10
2022-08-20T19:18:00.863Z,21.10
2022-08-20T19:20:29.623Z,21.00
2022-08-20T19:23:09.538Z,20.90
2022-08-20T19:25:38.836Z,20.90
2022-08-20T19:28:31.485Z,20.90
2022-08-20T19:31:21.788Z,20.80
2022-08-20T19:33:51.701Z,20.70
2022-08-20T19:36:22.307Z,20.70
2022-08-20T19:38:56.237Z,20.60
2022-08-20T19:41:31.478Z,20.60
2022-08-20T19:43:59.941Z,20.50
2022-08-20T19:46:37.875Z,20.40
2022-08-20T19:49:42.945Z,20.30
2022-08-20T19:52:38.843Z,20.20
2022-08-20T19:55:06.674Z,20.20
2022-08-20T19:57:33.672Z,20.10
2022-08-20T20:00:05.511Z,20.10
2022-08-20T20:02:32.953Z,20.00
2022-08-20T20:04:59.897Z,20.00
2022-08-20T20:07:48.282Z,19.90
2022-08-20T20:10:35.054Z,19.90
2022-08-20T20:13:17.022Z,19.90
2022-08-20T20:15:44.102Z,19.80
2022-08-20T20:18:11.708Z,19.80
2022-08-20T20:20:57.228Z,19.70
2022-08-20T20:23:45.645Z,19.60
2022-08-20T20:26:17.148Z,19.50
2022-08-20T20:29:00.491Z,19.50
2022-08-20T20:31:32.229Z,19.50
2022-08-20T20:34:00.671Z,19.40
2022-08-20T20:36:34.608Z,19.40
2022-08-20T20:39:11.221Z,19.30
2022-08-20T20:41:50.769Z,19.20
2022-08-20T20:44:20.753Z,19.20
2022-08-20T20:46:48.463Z,19.10
2022-08-20T20:49:22.186Z,19.20
2022-08-20T20:51:57.935Z,19.10
2022-08-20T20:54:45.652Z,19.20
2022-08-20T20:57:15.706Z,19.20
2022-08-20T20:59:42.901Z,19.10
2022-08-20T21:02:09.982Z,19.00
2022-08-20T21:04:40.741Z,19.00
2022-08-20T21:07:11.118Z,19.00
2022-08-20T21:09:38.826Z,18.90
2022-08-20T21:12:06.308Z,18.90
2022-08-20T21:14:33.547Z,18.90
2022-08-20T21:17:01.207Z,18.90
2022-08-20T21:19:28.498Z,18.80
2022-08-20T21:21:55.812Z,18.70
2022-08-20T21:24:22.928Z,18.70
2022-08-20T21:26:50.213Z,18.70
2022-08-20T21:29:22.558Z,18.60
2022-08-20T21:31:49.527Z,18.60
2022-08-20T21:34:17.638Z,18.60
2022-08-20T21:36:44.643Z,18.60
2022-08-20T21:39:11.630Z,18.50
2022-08-20T21:41:39.207Z,18.50
2022-08-20T21:44:26.371Z,18.50
2022-08-20T21:46:53.653Z,18.40
2022-08-20T21:49:21.445Z,18.40
2022-08-20T21:51:48.867Z,18.40
2022-08-20T21:54:16.135Z,18.30
2022-08-20T21:56:48.182Z,18.30
2022-08-20T21:59:15.184Z,18.20
2022-08-20T22:01:42.153Z,18.30
2022-08-20T22:04:09.155Z,18.30
2022-08-20T22:06:36.113Z,18.20
2022-08-20T22:09:03.235Z,18.20
2022-08-20T22:11:30.331Z,18.20
2022-08-20T22:13:57.507Z,18.10
2022-08-20T22:16:24.534Z,18.10
2022-08-20T22:18:51.754Z,18.10
2022-08-20T22:21:21.676Z,18.10
2022-08-20T22:23:48.655Z,18.10
2022-08-20T22:26:15.814Z,18.10
2022-08-20T22:28:42.873Z,18.10
2022-08-20T22:31:10.096Z,18.00
2022-08-20T22:33:38.145Z,17.90
2022-08-20T22:36:05.520Z,17.90
2022-08-20T22:38:32.574Z,17.90
2022-08-20T22:40:59.558Z,17.80
2022-08-20T22:43:26.520Z,17.80
2022-08-20T22:45:55.630Z,17.80
2022-08-20T22:48:22.575Z,17.80
2022-08-20T22:50:49.842Z,17.80
2022-08-20T22:53:17.520Z,17.70
2022-08-20T22:55:44.594Z,17.60
2022-08-20T22:58:12.810Z,17.70
2022-08-20T23:00:39.923Z,17.60
2022-08-20T23:03:07.199Z,17.60
2022-08-20T23:05:35.002Z,17.60
2022-08-20T23:08:02.067Z,17.50
2022-08-20T23:10:29.715Z,17.50
2022-08-20T23:12:57.582Z,17.50
2022-08-20T23:15:25.882Z,17.50
2022-08-20T23:17:54.370Z,17.40
2022-08-20T23:20:21.346Z,17.40
2022-08-20T23:22:48.275Z,17.30
2022-08-20T23:25:15.451Z,17.30
2022-08-20T23:27:44.527Z,17.30
2022-08-20T23:30:11.726Z,17.30
2022-08-20T23:32:38.885Z,17.30
2022-08-20T23:35:06.703Z,17.20
2022-08-20T23:37:34.965Z,17.20
2022-08-20T23:40:01.951Z,17.20
2022-08-20T23:42:29.028Z,17.20
2022-08-20T23:44:55.969Z,17.10
2022-08-20T23:47:23.437Z,17.10
2022-08-20T23:49:50.835Z,17.10
2022-08-20T23:52:17.903Z,17.00
2022-08-20T23:54:44.821Z,17.00
2022-08-20T23:57:11.946Z,17.00
2022-08-20T23:59:40.878Z,17.00
